createdAt,value
2017-07-16T00:01:32.713Z,17.50
2017-07-16T00:03:59.104Z,18.00
2017-07-16T00:06:25.509Z,18.00
2017-07-16T00:08:51.862Z,18.00
2017-07-16T00:11:18.222Z,17.70
2017-07-16T00:13:44.596Z,17.40
2017-07-16T00:17:36.239Z,18.10
2017-07-16T00:20:03.409Z,17.60
2017-07-16T00:22:29.804Z,17.80
2017-07-16T00:24:56.165Z,17.70
2017-07-16T00:27:22.519Z,18.00
2017-07-16T00:29:48.873Z,17.20
2017-07-16T00:32:15.246Z,17.40
2017-07-16T00:34:41.637Z,17.50
2017-07-16T00:37:08.021Z,17.60
2017-07-16T00:39:40.629Z,17.40
2017-07-16T00:42:07.004Z,18.00
2017-07-16T00:44:33.367Z,18.10
2017-07-16T00:46:59.739Z,18.00
2017-07-16T00:49:26.309Z,17.90
2017-07-16T00:51:52.670Z,18.10
2017-07-16T00:54:19.030Z,17.90
2017-07-16T00:56:45.394Z,18.00
2017-07-16T00:59:11.789Z,17.90
2017-07-16T01:01:38.156Z,18.00
2017-07-16T01:04:04.511Z,18.10
2017-07-16T01:06:30.867Z,18.10
2017-07-16T01:11:56.996Z,18.00
2017-07-16T01:14:23.343Z,17.50
2017-07-16T01:17:36.036Z,17.80
2017-07-16T01:20:02.425Z,17.80
2017-07-16T01:22:28.789Z,18.10
2017-07-16T01:24:55.158Z,18.00
2017-07-16T01:27:21.523Z,17.50
2017-07-16T01:29:47.933Z,17.40
2017-07-16T01:32:14.375Z,17.90
2017-07-16T01:34:40.732Z,18.00
2017-07-16T01:37:07.112Z,17.70
2017-07-16T01:39:33.479Z,18.10
2017-07-16T01:41:59.896Z,18.10
2017-07-16T01:44:26.276Z,18.10
2017-07-16T01:46:52.640Z,18.00
2017-07-16T01:49:19.017Z,17.80
2017-07-16T01:51:45.424Z,17.80
2017-07-16T01:54:11.831Z,18.10
2017-07-16T01:56:38.267Z,18.10
2017-07-16T01:59:04.629Z,18.00
2017-07-16T02:01:30.968Z,18.10
2017-07-16T02:03:57.326Z,18.10
2017-07-16T02:06:23.719Z,18.00
2017-07-16T02:08:50.129Z,17.90
2017-07-16T02:11:16.495Z,18.10
2017-07-16T02:13:42.852Z,18.00
2017-07-16T02:17:36.165Z,18.00
2017-07-16T02:20:02.567Z,18.00
2017-07-16T02:22:28.919Z,17.90
2017-07-16T02:24:55.269Z,18.00
2017-07-16T02:27:21.634Z,18.10
2017-07-16T02:29:48.020Z,18.10
2017-07-16T02:32:14.411Z,18.10
2017-07-16T02:34:40.808Z,18.10
2017-07-16T02:37:07.175Z,18.10
2017-07-16T02:39:33.646Z,18.10
2017-07-16T02:41:59.985Z,18.20
2017-07-16T02:44:26.371Z,18.00
2017-07-16T02:46:52.740Z,18.10
2017-07-16T02:49:19.109Z,17.90
2017-07-16T02:51:45.469Z,18.00
2017-07-16T02:54:11.857Z,18.10
2017-07-16T02:56:38.252Z,18.10
2017-07-16T02:59:04.621Z,17.90
2017-07-16T03:01:30.977Z,18.00
2017-07-16T03:03:57.319Z,18.20
2017-07-16T03:06:23.715Z,18.20
2017-07-16T03:08:50.103Z,18.00
2017-07-16T03:11:16.452Z,18.10
2017-07-16T03:13:42.824Z,17.90
2017-07-16T03:17:36.495Z,17.80
2017-07-16T03:20:02.884Z,18.10
2017-07-16T03:22:29.252Z,18.00
2017-07-16T03:25:14.394Z,18.00
2017-07-16T03:27:40.776Z,18.00
2017-07-16T03:30:07.148Z,17.60
2017-07-16T03:32:33.531Z,18.20
2017-07-16T03:34:59.908Z,18.10
2017-07-16T03:37:26.332Z,18.00
2017-07-16T03:39:52.758Z,18.20
2017-07-16T03:42:19.124Z,18.10
2017-07-16T03:44:45.516Z,18.00
2017-07-16T03:47:11.883Z,18.00
2017-07-16T03:49:38.263Z,18.20
2017-07-16T03:52:04.634Z,18.10
2017-07-16T03:54:31.000Z,18.10
2017-07-16T03:56:57.385Z,18.10
2017-07-16T03:59:23.750Z,18.20
2017-07-16T04:01:50.125Z,18.30
2017-07-16T04:04:16.496Z,18.20
2017-07-16T04:06:42.869Z,17.90
2017-07-16T04:09:09.273Z,18.00
2017-07-16T04:11:35.738Z,18.20
2017-07-16T04:14:02.107Z,18.20
2017-07-16T04:17:35.690Z,18.30
2017-07-16T04:20:02.108Z,18.00
2017-07-16T04:22:28.463Z,18.20
2017-07-16T04:24:54.817Z,18.10
2017-07-16T04:27:21.180Z,18.20
2017-07-16T04:29:47.528Z,18.10
2017-07-16T04:32:13.971Z,18.10
2017-07-16T04:34:40.326Z,18.50
2017-07-16T04:37:06.664Z,18.00
2017-07-16T04:39:32.894Z,18.50
2017-07-16T04:41:59.131Z,18.70
2017-07-16T04:44:25.381Z,18.70
2017-07-16T04:46:51.623Z,18.60
2017-07-16T04:49:17.864Z,18.60
2017-07-16T04:51:44.092Z,18.60
2017-07-16T04:54:10.356Z,18.50
2017-07-16T04:56:36.626Z,18.60
2017-07-16T04:59:02.865Z,18.50
2017-07-16T05:01:29.109Z,18.60
2017-07-16T05:03:55.337Z,18.20
2017-07-16T05:06:21.579Z,18.60
2017-07-16T05:08:47.821Z,18.80
2017-07-16T05:11:14.081Z,18.30
2017-07-16T05:13:40.325Z,18.70
2017-07-16T05:17:35.458Z,18.80
2017-07-16T05:20:01.709Z,18.80
2017-07-16T05:22:27.963Z,18.70
2017-07-16T05:24:54.209Z,19.00
2017-07-16T05:27:20.445Z,18.80
2017-07-16T05:29:46.713Z,18.70
2017-07-16T05:32:12.944Z,18.60
2017-07-16T05:34:39.197Z,18.60
2017-07-16T05:37:05.438Z,18.60
2017-07-16T05:39:31.682Z,18.50
2017-07-16T05:41:57.944Z,18.70
2017-07-16T05:44:24.205Z,18.60
2017-07-16T05:46:50.436Z,18.50
2017-07-16T05:49:16.676Z,18.70
2017-07-16T05:51:42.891Z,18.80
2017-07-16T05:54:09.152Z,18.60
2017-07-16T05:56:35.383Z,18.70
2017-07-16T05:59:01.635Z,18.70
2017-07-16T06:01:27.887Z,18.70
2017-07-16T06:03:54.132Z,18.70
2017-07-16T06:06:20.392Z,19.40
2017-07-16T06:08:46.635Z,19.30
2017-07-16T06:11:12.893Z,19.20
2017-07-16T06:13:39.130Z,19.20
2017-07-16T06:17:35.826Z,19.20
2017-07-16T06:20:02.096Z,19.20
2017-07-16T06:22:28.346Z,19.30
2017-07-16T06:24:54.584Z,19.30
2017-07-16T06:27:20.844Z,18.80
2017-07-16T06:29:47.224Z,18.80
2017-07-16T06:32:13.487Z,19.10
2017-07-16T06:34:39.732Z,19.10
2017-07-16T06:37:05.959Z,19.20
2017-07-16T06:39:32.192Z,19.20
2017-07-16T06:41:58.440Z,19.30
2017-07-16T06:44:24.689Z,19.10
2017-07-16T06:46:50.932Z,19.10
2017-07-16T06:49:17.163Z,18.70
2017-07-16T06:51:43.403Z,19.20
2017-07-16T06:54:09.685Z,19.10
2017-07-16T06:56:35.958Z,19.40
2017-07-16T06:59:02.199Z,19.20
2017-07-16T07:01:28.462Z,19.20
2017-07-16T07:03:54.749Z,19.30
2017-07-16T07:06:27.959Z,19.10
2017-07-16T07:08:54.223Z,19.30
2017-07-16T07:11:20.447Z,19.20
2017-07-16T07:13:46.698Z,19.30
2017-07-16T07:17:36.167Z,19.40
2017-07-16T07:20:02.453Z,19.20
2017-07-16T07:22:28.720Z,19.40
2017-07-16T07:24:54.981Z,19.30
2017-07-16T07:27:21.241Z,19.50
2017-07-16T07:29:47.603Z,20.00
2017-07-16T07:32:13.869Z,19.90
2017-07-16T07:34:40.169Z,20.20
2017-07-16T07:37:06.422Z,20.10
2017-07-16T07:39:32.673Z,19.80
2017-07-16T07:41:58.941Z,20.10
2017-07-16T07:44:25.244Z,20.00
2017-07-16T07:46:51.473Z,20.20
2017-07-16T07:49:17.724Z,20.70
2017-07-16T07:51:44.008Z,20.20
2017-07-16T07:54:10.240Z,20.40
2017-07-16T07:56:36.508Z,20.70
2017-07-16T07:59:02.955Z,20.60
2017-07-16T08:01:29.208Z,20.90
2017-07-16T08:03:55.432Z,20.90
2017-07-16T08:06:21.718Z,20.60
2017-07-16T08:08:47.956Z,20.70
2017-07-16T08:11:14.207Z,20.80
2017-07-16T08:13:40.440Z,20.80
2017-07-16T08:17:36.351Z,20.80
2017-07-16T08:20:02.599Z,20.70
2017-07-16T08:22:28.849Z,20.90
2017-07-16T08:24:55.087Z,20.80
2017-07-16T08:27:28.317Z,20.80
2017-07-16T08:29:54.631Z,20.70
2017-07-16T08:32:20.850Z,20.90
2017-07-16T08:34:47.155Z,20.80
2017-07-16T08:37:13.499Z,20.90
2017-07-16T08:39:39.749Z,20.80
2017-07-16T08:42:06.020Z,20.70
2017-07-16T08:44:32.622Z,21.00
2017-07-16T08:46:58.970Z,21.00
2017-07-16T08:49:25.277Z,20.90
2017-07-16T08:51:51.538Z,21.50
2017-07-16T08:54:17.903Z,21.20
2017-07-16T08:56:44.282Z,21.50
2017-07-16T08:59:10.533Z,21.00
2017-07-16T09:01:36.944Z,21.00
2017-07-16T09:04:07.063Z,20.90
2017-07-16T09:06:33.495Z,21.00
2017-07-16T09:08:59.929Z,21.50
2017-07-16T09:11:26.211Z,21.00
2017-07-16T09:13:52.471Z,21.00
2017-07-16T09:17:35.557Z,20.90
2017-07-16T09:20:01.861Z,20.50
2017-07-16T09:22:28.141Z,21.00
2017-07-16T09:24:54.410Z,20.80
2017-07-16T09:27:20.681Z,20.80
2017-07-16T09:29:47.000Z,20.80
2017-07-16T09:32:13.258Z,20.90
2017-07-16T09:34:39.685Z,20.90
2017-07-16T09:37:05.978Z,20.70
2017-07-16T09:39:32.264Z,20.80
2017-07-16T09:41:58.547Z,20.80
2017-07-16T09:44:25.007Z,20.70
2017-07-16T09:46:51.525Z,20.90
2017-07-16T09:49:17.797Z,21.00
2017-07-16T09:51:44.048Z,21.40
2017-07-16T09:54:10.405Z,21.70
2017-07-16T09:56:36.705Z,21.70
2017-07-16T09:59:03.041Z,21.80
2017-07-16T10:01:29.294Z,21.90
2017-07-16T10:03:55.565Z,22.00
2017-07-16T10:06:21.852Z,21.90
2017-07-16T10:08:48.706Z,22.10
2017-07-16T10:11:15.157Z,22.30
2017-07-16T10:13:41.620Z,22.50
2017-07-16T10:17:38.136Z,23.20
2017-07-16T10:20:04.388Z,22.80
2017-07-16T10:22:30.646Z,22.90
2017-07-16T10:24:56.917Z,23.30
2017-07-16T10:27:23.147Z,23.50
2017-07-16T10:29:49.411Z,23.80
2017-07-16T10:32:15.672Z,23.40
2017-07-16T10:34:41.956Z,24.10
2017-07-16T10:37:08.215Z,24.00
2017-07-16T10:39:34.483Z,23.70
2017-07-16T10:42:00.731Z,24.00
2017-07-16T10:44:26.985Z,24.60
2017-07-16T10:46:53.262Z,24.00
2017-07-16T10:49:19.510Z,24.30
2017-07-16T10:51:46.479Z,24.50
2017-07-16T10:54:12.729Z,24.40
2017-07-16T10:56:39.005Z,24.40
2017-07-16T10:59:05.277Z,23.90
2017-07-16T11:01:31.522Z,23.70
2017-07-16T11:03:57.799Z,24.00
2017-07-16T11:06:24.053Z,23.90
2017-07-16T11:08:50.295Z,23.90
2017-07-16T11:11:16.577Z,23.80
2017-07-16T11:13:42.864Z,23.90
2017-07-16T11:17:36.020Z,24.30
2017-07-16T11:20:02.296Z,24.20
2017-07-16T11:22:28.574Z,24.80
2017-07-16T11:24:54.851Z,24.60
2017-07-16T11:27:21.260Z,24.70
2017-07-16T11:29:47.508Z,24.60
2017-07-16T11:32:13.949Z,24.50
2017-07-16T11:34:40.485Z,24.90
2017-07-16T11:37:06.726Z,24.90
2017-07-16T11:39:32.983Z,25.20
2017-07-16T11:41:59.320Z,25.00
2017-07-16T11:44:25.568Z,24.70
2017-07-16T11:46:51.977Z,24.60
2017-07-16T11:49:19.702Z,24.60
2017-07-16T11:51:46.057Z,24.60
2017-07-16T11:54:12.308Z,24.90
2017-07-16T11:56:38.683Z,25.10
2017-07-16T11:59:05.163Z,25.40
2017-07-16T12:01:31.562Z,25.90
2017-07-16T12:03:57.815Z,25.70
2017-07-16T12:06:24.096Z,25.80
2017-07-16T12:08:50.334Z,25.70
2017-07-16T12:11:16.592Z,25.90
2017-07-16T12:13:42.844Z,26.00
2017-07-16T12:17:36.820Z,25.80
2017-07-16T12:20:03.094Z,26.20
2017-07-16T12:22:29.340Z,26.00
2017-07-16T12:24:55.592Z,25.60
2017-07-16T12:27:21.859Z,25.00
2017-07-16T12:29:48.173Z,24.80
2017-07-16T12:32:14.442Z,25.00
2017-07-16T12:34:40.696Z,25.40
2017-07-16T12:37:06.988Z,25.60
2017-07-16T12:39:33.259Z,25.50
2017-07-16T12:41:59.806Z,25.10
2017-07-16T12:44:26.065Z,25.30
2017-07-16T12:46:52.317Z,24.50
2017-07-16T12:49:18.583Z,24.90
2017-07-16T12:51:44.852Z,24.90
2017-07-16T12:54:11.165Z,25.10
2017-07-16T12:56:37.427Z,25.00
2017-07-16T12:59:03.662Z,24.70
2017-07-16T13:01:29.909Z,24.70
2017-07-16T13:03:56.163Z,24.00
2017-07-16T13:06:22.419Z,24.50
2017-07-16T13:08:48.686Z,24.60
2017-07-16T13:11:14.924Z,24.50
2017-07-16T13:13:41.167Z,24.70
2017-07-16T13:17:35.827Z,24.30
2017-07-16T13:20:02.087Z,24.20
2017-07-16T13:22:28.336Z,24.00
2017-07-16T13:24:54.577Z,24.50
2017-07-16T13:27:20.840Z,24.40
2017-07-16T13:29:47.097Z,23.80
2017-07-16T13:32:13.360Z,24.00
2017-07-16T13:34:39.679Z,24.00
2017-07-16T13:37:05.912Z,24.60
2017-07-16T13:39:32.171Z,24.30
2017-07-16T13:41:58.440Z,24.00
2017-07-16T13:44:24.680Z,23.90
2017-07-16T13:46:50.952Z,23.70
2017-07-16T13:49:17.231Z,23.30
2017-07-16T13:51:43.498Z,23.30
2017-07-16T13:54:09.743Z,23.20
2017-07-16T13:56:35.996Z,23.40
2017-07-16T13:59:02.370Z,23.70
2017-07-16T14:01:28.640Z,23.20
2017-07-16T14:03:54.901Z,23.10
2017-07-16T14:06:21.326Z,23.10
2017-07-16T14:08:47.559Z,23.00
2017-07-16T14:11:13.786Z,22.90
2017-07-16T14:13:40.035Z,23.20
2017-07-16T14:17:35.267Z,23.20
2017-07-16T14:20:02.263Z,23.60
2017-07-16T14:22:28.544Z,23.70
2017-07-16T14:24:54.780Z,23.00
2017-07-16T14:27:21.019Z,23.60
2017-07-16T14:29:47.314Z,23.10
2017-07-16T14:32:13.564Z,23.00
2017-07-16T14:34:39.840Z,23.00
2017-07-16T14:37:06.081Z,23.10
2017-07-16T14:39:32.332Z,23.70
2017-07-16T14:41:58.592Z,23.80
2017-07-16T14:44:24.823Z,24.00
2017-07-16T14:46:51.079Z,24.70
2017-07-16T14:49:17.326Z,24.60
2017-07-16T14:51:43.555Z,24.60
2017-07-16T14:54:09.826Z,24.60
2017-07-16T14:56:36.081Z,24.80
2017-07-16T14:59:02.342Z,25.30
2017-07-16T15:01:28.591Z,24.70
2017-07-16T15:03:54.865Z,24.70
2017-07-16T15:06:21.119Z,24.60
2017-07-16T15:08:47.357Z,24.10
2017-07-16T15:11:13.616Z,24.70
2017-07-16T15:13:39.856Z,24.70
2017-07-16T15:17:36.023Z,24.70
2017-07-16T15:20:02.310Z,25.10
2017-07-16T15:22:28.546Z,24.50
2017-07-16T15:24:54.776Z,24.00
2017-07-16T15:27:21.045Z,24.70
2017-07-16T15:29:47.340Z,24.80
2017-07-16T15:32:13.577Z,24.40
2017-07-16T15:34:39.835Z,24.40
2017-07-16T15:37:06.061Z,23.90
2017-07-16T15:39:32.329Z,23.90
2017-07-16T15:41:58.616Z,23.90
2017-07-16T15:44:24.907Z,24.40
2017-07-16T15:46:51.149Z,24.20
2017-07-16T15:49:17.378Z,23.30
2017-07-16T15:51:43.613Z,23.20
2017-07-16T15:54:09.891Z,23.90
2017-07-16T15:56:36.152Z,23.80
2017-07-16T15:59:02.411Z,24.50
2017-07-16T16:01:28.654Z,23.90
2017-07-16T16:03:54.882Z,23.80
2017-07-16T16:06:21.160Z,23.90
2017-07-16T16:08:47.467Z,23.70
2017-07-16T16:11:13.703Z,23.80
2017-07-16T16:13:39.964Z,24.40
2017-07-16T16:17:35.637Z,24.40
2017-07-16T16:20:01.883Z,25.00
2017-07-16T16:22:28.107Z,24.70
2017-07-16T16:24:54.351Z,24.70
2017-07-16T16:27:20.601Z,24.60
2017-07-16T16:29:46.835Z,24.50
2017-07-16T16:32:13.104Z,24.50
2017-07-16T16:34:39.332Z,24.00
2017-07-16T16:37:05.573Z,24.00
2017-07-16T16:39:32.550Z,23.80
2017-07-16T16:41:58.795Z,23.90
2017-07-16T16:44:25.053Z,23.40
2017-07-16T16:46:51.292Z,23.70
2017-07-16T16:49:17.521Z,23.80
2017-07-16T16:51:43.764Z,23.80
2017-07-16T16:54:10.016Z,23.90
2017-07-16T16:56:36.267Z,23.90
2017-07-16T16:59:02.504Z,23.70
2017-07-16T17:01:28.757Z,23.80
2017-07-16T17:03:55.026Z,23.70
2017-07-16T17:06:21.300Z,23.80
2017-07-16T17:08:47.551Z,23.50
2017-07-16T17:11:13.797Z,23.70
2017-07-16T17:13:40.033Z,23.80
2017-07-16T17:17:35.572Z,23.90
2017-07-16T17:20:01.893Z,23.70
2017-07-16T17:22:28.143Z,23.80
2017-07-16T17:24:54.383Z,24.10
2017-07-16T17:27:20.627Z,24.20
2017-07-16T17:29:46.868Z,23.80
2017-07-16T17:32:13.164Z,24.30
2017-07-16T17:34:39.417Z,24.00
2017-07-16T17:37:05.644Z,23.90
2017-07-16T17:39:31.897Z,23.70
2017-07-16T17:41:58.138Z,23.80
2017-07-16T17:44:24.404Z,23.60
2017-07-16T17:46:50.672Z,23.20
2017-07-16T17:49:16.967Z,23.70
2017-07-16T17:51:43.247Z,23.90
2017-07-16T17:54:09.507Z,23.80
2017-07-16T17:56:35.815Z,23.80
2017-07-16T17:59:02.103Z,23.70
2017-07-16T18:01:28.457Z,23.90
2017-07-16T18:03:54.735Z,23.80
2017-07-16T18:06:21.009Z,23.70
2017-07-16T18:08:47.284Z,23.70
2017-07-16T18:11:13.569Z,23.80
2017-07-16T18:13:39.850Z,23.20
2017-07-16T18:17:36.789Z,23.80
2017-07-16T18:20:03.100Z,23.80
2017-07-16T18:22:29.399Z,23.90
2017-07-16T18:24:55.694Z,23.80
2017-07-16T18:27:21.974Z,23.80
2017-07-16T18:29:48.265Z,23.80
2017-07-16T18:32:14.522Z,23.80
2017-07-16T18:34:40.841Z,23.50
2017-07-16T18:37:07.146Z,23.60
2017-07-16T18:39:33.430Z,23.20
2017-07-16T18:41:59.689Z,23.20
2017-07-16T18:44:25.970Z,23.50
2017-07-16T18:46:52.287Z,23.10
2017-07-16T18:49:18.592Z,23.60
2017-07-16T18:51:44.862Z,23.00
2017-07-16T18:54:11.157Z,23.10
2017-07-16T18:56:37.417Z,23.10
2017-07-16T18:59:03.727Z,23.10
2017-07-16T19:01:30.004Z,23.00
2017-07-16T19:03:56.283Z,23.00
2017-07-16T19:06:22.547Z,23.00
2017-07-16T19:08:48.813Z,22.50
2017-07-16T19:11:15.262Z,22.50
2017-07-16T19:13:41.634Z,22.90
2017-07-16T19:17:37.246Z,22.40
2017-07-16T19:20:03.526Z,23.00
2017-07-16T19:22:29.786Z,22.50
2017-07-16T19:24:56.071Z,22.40
2017-07-16T19:27:22.352Z,22.90
2017-07-16T19:29:48.670Z,22.90
2017-07-16T19:32:14.959Z,22.90
2017-07-16T19:34:41.276Z,22.80
2017-07-16T19:37:07.528Z,22.90
2017-07-16T19:39:33.772Z,22.80
2017-07-16T19:42:00.063Z,22.80
2017-07-16T19:44:26.373Z,22.20
2017-07-16T19:46:53.401Z,22.80
2017-07-16T19:49:20.392Z,22.80
2017-07-16T19:51:46.680Z,22.00
2017-07-16T19:54:13.704Z,22.90
2017-07-16T19:56:40.031Z,22.80
2017-07-16T19:59:06.318Z,22.90
2017-07-16T20:01:32.587Z,22.90
2017-07-16T20:03:58.846Z,22.70
2017-07-16T20:06:25.132Z,22.90
2017-07-16T20:08:51.295Z,22.00
2017-07-16T20:11:18.317Z,22.30
2017-07-16T20:13:44.607Z,22.40
2017-07-16T20:17:35.610Z,22.10
2017-07-16T20:20:01.913Z,22.30
2017-07-16T20:22:28.211Z,22.40
2017-07-16T20:24:54.474Z,22.20
2017-07-16T20:27:21.567Z,22.30
2017-07-16T20:29:47.859Z,22.20
2017-07-16T20:32:14.925Z,22.30
2017-07-16T20:34:41.198Z,21.70
2017-07-16T20:37:07.457Z,22.20
2017-07-16T20:39:33.719Z,22.30
2017-07-16T20:41:59.992Z,22.20
2017-07-16T20:44:26.407Z,22.10
2017-07-16T20:46:53.742Z,22.20
2017-07-16T20:49:19.997Z,22.20
2017-07-16T20:51:46.268Z,22.20
2017-07-16T20:54:12.529Z,22.20
2017-07-16T20:56:38.808Z,22.30
2017-07-16T20:59:05.068Z,22.20
2017-07-16T21:01:31.307Z,22.20
2017-07-16T21:03:57.564Z,22.30
2017-07-16T21:06:23.837Z,22.40
2017-07-16T21:08:50.113Z,22.20
2017-07-16T21:11:16.388Z,22.20
2017-07-16T21:13:43.380Z,22.10
2017-07-16T21:17:35.375Z,22.20
2017-07-16T21:20:01.637Z,22.20
2017-07-16T21:22:27.919Z,22.20
2017-07-16T21:24:54.185Z,22.10
2017-07-16T21:27:20.490Z,22.10
2017-07-16T21:29:46.742Z,21.70
2017-07-16T21:32:13.001Z,21.50
2017-07-16T21:34:39.314Z,21.50
2017-07-16T21:37:05.566Z,20.80
2017-07-16T21:39:31.812Z,20.90
2017-07-16T21:41:58.084Z,21.10
2017-07-16T21:44:24.375Z,21.00
2017-07-16T21:46:50.684Z,20.80
2017-07-16T21:49:16.963Z,20.80
2017-07-16T21:51:43.212Z,20.90
2017-07-16T21:54:09.473Z,20.80
2017-07-16T21:56:35.761Z,20.90
2017-07-16T21:59:02.032Z,20.70
2017-07-16T22:01:28.312Z,20.80
2017-07-16T22:03:54.587Z,20.50
2017-07-16T22:06:20.883Z,20.40
2017-07-16T22:08:47.145Z,20.50
2017-07-16T22:11:13.436Z,20.90
2017-07-16T22:13:39.703Z,20.80
2017-07-16T22:17:37.892Z,20.20
2017-07-16T22:20:04.160Z,20.40
2017-07-16T22:22:30.440Z,20.30
2017-07-16T22:24:56.710Z,20.20
2017-07-16T22:27:23.219Z,20.30
2017-07-16T22:29:49.492Z,19.70
2017-07-16T22:32:15.805Z,20.30
2017-07-16T22:34:42.086Z,20.30
2017-07-16T22:37:08.429Z,20.20
2017-07-16T22:39:34.732Z,20.70
2017-07-16T22:42:01.474Z,20.20
2017-07-16T22:44:27.781Z,20.80
2017-07-16T22:46:54.048Z,20.90
2017-07-16T22:49:20.304Z,20.90
2017-07-16T22:51:46.575Z,20.60
2017-07-16T22:54:12.851Z,20.50
2017-07-16T22:56:39.883Z,20.20
2017-07-16T22:59:06.175Z,20.10
2017-07-16T23:01:32.467Z,20.30
2017-07-16T23:03:58.751Z,20.20
2017-07-16T23:06:25.058Z,20.40
2017-07-16T23:08:51.330Z,20.30
2017-07-16T23:11:17.587Z,20.30
2017-07-16T23:13:43.853Z,20.10
2017-07-16T23:17:36.751Z,20.70
2017-07-16T23:20:03.038Z,20.10
2017-07-16T23:22:32.158Z,20.30
2017-07-16T23:24:58.466Z,20.10
2017-07-16T23:27:24.717Z,20.30
2017-07-16T23:29:50.988Z,20.00
2017-07-16T23:32:17.281Z,20.30
2017-07-16T23:34:43.546Z,20.70
2017-07-16T23:37:09.810Z,20.40
2017-07-16T23:39:36.095Z,20.70
2017-07-16T23:42:02.361Z,20.70
2017-07-16T23:44:28.642Z,20.70
2017-07-16T23:46:54.899Z,20.70
2017-07-16T23:49:21.152Z,20.70
2017-07-16T23:51:47.422Z,20.40
2017-07-16T23:54:13.819Z,20.30
2017-07-16T23:56:40.129Z,20.80
2017-07-16T23:59:06.405Z,20.60
